Open Full Screen Window  High Contrast Mode
Wind Gusting 00 knots
04
May 27, 2016 10:56 PM CDT
Weather Information
Wind Direction
  160 °
Wind Speed
  04 kt (5 mph)
Wind Gust
  00 kt (0 mph)
Altimeter
30.02 in
Visibility
10 SM
Temperature
22° C
72° F
Dewpoint
15° C
59° F
Humidity
65%
Sky Condition
Clear
VFR

METAR KAXV 280356Z AUTO 16004KT 10SM CLR 22/15 A3002 RMK AO2

*Background is not an actual portrayal of the airport.